createdAt,value
2018-10-09T00:03:19.791Z,98.72
2018-10-09T00:06:42.282Z,98.57
2018-10-09T00:10:04.853Z,98.74
2018-10-09T00:13:27.404Z,98.12
2018-10-09T00:16:49.861Z,99.04
2018-10-09T00:20:16.843Z,98.06
2018-10-09T00:23:39.321Z,98.96
2018-10-09T00:27:01.821Z,99.33
2018-10-09T00:30:25.105Z,99.54
2018-10-09T00:33:47.643Z,98.45
2018-10-09T00:37:10.077Z,98.61
2018-10-09T00:40:32.528Z,97.23
2018-10-09T00:43:55.010Z,98.03
2018-10-09T00:51:43.476Z,96.87
2018-10-09T00:55:06.269Z,97.33
2018-10-09T00:58:28.779Z,99.23
2018-10-09T01:01:51.222Z,98.91
2018-10-09T01:05:13.770Z,100.00
2018-10-09T01:08:36.965Z,100.00
2018-10-09T01:11:59.498Z,100.00
2018-10-09T01:15:22.039Z,100.00
2018-10-09T01:18:46.531Z,100.00
2018-10-09T01:22:12.559Z,100.00
2018-10-09T01:25:36.110Z,97.85
2018-10-09T01:28:58.581Z,96.80
2018-10-09T01:32:21.028Z,100.00
2018-10-09T01:35:43.373Z,99.53
2018-10-09T01:39:07.094Z,98.73
2018-10-09T01:42:29.472Z,98.10
2018-10-09T01:45:51.858Z,98.98
2018-10-09T01:49:14.387Z,100.00
2018-10-09T01:52:36.801Z,100.00
2018-10-09T01:55:59.391Z,98.94
2018-10-09T01:59:21.918Z,98.17
2018-10-09T02:02:44.610Z,98.76
2018-10-09T02:06:12.302Z,99.96
2018-10-09T02:09:35.330Z,98.56
2018-10-09T02:12:57.774Z,95.87
2018-10-09T02:16:20.203Z,94.43
2018-10-09T02:19:42.606Z,98.01
2018-10-09T02:23:05.009Z,96.25
2018-10-09T02:26:27.449Z,97.39
2018-10-09T02:29:49.860Z,97.45
2018-10-09T02:33:12.286Z,97.69
2018-10-09T02:36:34.818Z,96.03
2018-10-09T02:39:57.487Z,98.91
2018-10-09T02:43:20.009Z,98.46
2018-10-09T02:46:42.458Z,95.07
2018-10-09T02:50:05.598Z,96.23
2018-10-09T02:53:28.068Z,97.53
2018-10-09T02:56:50.605Z,92.38
2018-10-09T03:00:13.117Z,100.00
2018-10-09T03:03:40.817Z,100.00
2018-10-09T03:07:04.643Z,100.00
2018-10-09T03:10:31.237Z,100.00
2018-10-09T03:13:55.064Z,100.00
2018-10-09T03:17:18.076Z,100.00
2018-10-09T03:21:11.836Z,100.00
2018-10-09T03:24:35.917Z,100.00
2018-10-09T03:27:58.962Z,100.00
2018-10-09T03:31:22.121Z,100.00
2018-10-09T03:34:45.541Z,100.00
2018-10-09T03:38:09.601Z,100.00
2018-10-09T03:41:38.608Z,100.00
2018-10-09T03:45:01.618Z,100.00
2018-10-09T03:48:24.106Z,100.00
2018-10-09T03:51:46.854Z,100.00
2018-10-09T03:55:09.305Z,100.00
2018-10-09T03:58:31.792Z,100.00
2018-10-09T04:01:54.300Z,100.00
2018-10-09T04:05:16.860Z,100.00
2018-10-09T04:08:39.381Z,100.00
2018-10-09T04:12:01.774Z,100.00
2018-10-09T04:15:24.286Z,100.00
2018-10-09T04:18:46.683Z,100.00
2018-10-09T04:22:13.765Z,100.00
2018-10-09T04:25:36.201Z,100.00
2018-10-09T04:28:58.654Z,100.00
2018-10-09T04:32:21.249Z,100.00
2018-10-09T04:35:43.801Z,100.00
2018-10-09T04:39:07.578Z,100.00
2018-10-09T04:42:30.077Z,100.00
2018-10-09T04:45:52.509Z,100.00
2018-10-09T04:49:15.066Z,100.00
2018-10-09T04:52:38.522Z,100.00
2018-10-09T04:56:01.005Z,100.00
2018-10-09T04:59:23.419Z,100.00
2018-10-09T05:02:45.908Z,100.00
2018-10-09T05:06:08.359Z,100.00
2018-10-09T05:09:30.875Z,100.00
2018-10-09T05:12:53.305Z,100.00
2018-10-09T05:16:15.926Z,100.00
2018-10-09T05:20:09.905Z,100.00
2018-10-09T05:23:32.313Z,100.00
2018-10-09T05:26:54.777Z,100.00
2018-10-09T05:30:17.279Z,100.00
2018-10-09T05:33:39.625Z,100.00
2018-10-09T05:37:02.024Z,100.00
2018-10-09T05:40:24.502Z,100.00
2018-10-09T05:43:46.917Z,100.00
2018-10-09T05:47:10.375Z,100.00
2018-10-09T05:50:33.926Z,100.00
2018-10-09T05:53:56.550Z,100.00
2018-10-09T05:57:19.048Z,100.00
2018-10-09T06:00:41.554Z,100.00
2018-10-09T06:04:04.308Z,100.00
2018-10-09T06:07:32.568Z,100.00
2018-10-09T06:10:56.001Z,100.00
2018-10-09T06:14:18.580Z,100.00
2018-10-09T06:17:41.194Z,100.00
2018-10-09T06:21:03.730Z,100.00
2018-10-09T06:24:27.569Z,100.00
2018-10-09T06:27:50.171Z,100.00
2018-10-09T06:31:12.660Z,100.00
2018-10-09T06:34:35.246Z,100.00
2018-10-09T06:37:57.731Z,100.00
2018-10-09T06:41:20.208Z,100.00
2018-10-09T06:44:42.675Z,99.34
2018-10-09T06:48:05.390Z,98.45
2018-10-09T06:51:27.798Z,100.00
2018-10-09T06:54:50.298Z,100.00
2018-10-09T06:58:12.715Z,100.00
2018-10-09T07:01:35.232Z,100.00
2018-10-09T07:04:57.642Z,98.63
2018-10-09T07:08:20.236Z,99.14
2018-10-09T07:11:42.830Z,98.52
2018-10-09T07:15:05.278Z,98.76
2018-10-09T07:18:27.850Z,99.60
2018-10-09T07:21:50.451Z,100.00
2018-10-09T07:25:12.879Z,100.00
2018-10-09T07:28:35.350Z,100.00
2018-10-09T07:31:57.732Z,100.00
2018-10-09T07:35:20.103Z,100.00
2018-10-09T07:38:42.616Z,100.00
2018-10-09T07:42:05.270Z,100.00
2018-10-09T07:45:27.729Z,100.00
2018-10-09T07:48:51.186Z,100.00
2018-10-09T07:52:14.048Z,100.00
2018-10-09T07:55:36.695Z,100.00
2018-10-09T07:58:59.325Z,100.00
2018-10-09T08:02:21.826Z,100.00
2018-10-09T08:05:44.219Z,100.00
2018-10-09T08:09:08.854Z,100.00
2018-10-09T08:12:31.609Z,100.00
2018-10-09T08:15:54.216Z,98.30
2018-10-09T08:19:17.347Z,99.36
2018-10-09T08:22:39.951Z,95.55
2018-10-09T08:26:02.790Z,94.89
2018-10-09T08:29:25.253Z,95.47
2018-10-09T08:32:47.875Z,94.98
2018-10-09T08:36:10.574Z,93.53
2018-10-09T08:39:33.071Z,94.14
2018-10-09T08:42:55.665Z,97.96
2018-10-09T08:46:18.263Z,99.07
2018-10-09T08:49:40.769Z,94.14
2018-10-09T08:53:03.217Z,99.22
2018-10-09T08:56:25.700Z,98.45
2018-10-09T08:59:48.069Z,99.89
2018-10-09T09:03:10.522Z,98.14
2018-10-09T09:06:33.025Z,99.50
2018-10-09T09:09:55.652Z,97.76
2018-10-09T09:13:18.180Z,99.71
2018-10-09T09:16:40.661Z,100.00
2018-10-09T09:20:03.185Z,100.00
2018-10-09T09:23:25.589Z,100.00
2018-10-09T09:26:48.164Z,100.00
2018-10-09T09:30:10.623Z,100.00
2018-10-09T09:33:33.102Z,100.00
2018-10-09T09:36:55.645Z,100.00
2018-10-09T09:40:18.148Z,99.19
2018-10-09T09:43:40.577Z,100.00
2018-10-09T09:47:03.052Z,100.00
2018-10-09T09:50:25.445Z,93.60
2018-10-09T09:53:48.019Z,91.69
2018-10-09T09:57:10.475Z,92.95
2018-10-09T10:00:38.613Z,90.16
2018-10-09T10:04:01.147Z,87.60
2018-10-09T10:07:23.607Z,88.50
2018-10-09T10:10:46.051Z,91.93
2018-10-09T10:14:08.672Z,92.43
2018-10-09T10:17:31.129Z,95.53
2018-10-09T10:20:53.680Z,97.70
2018-10-09T10:24:16.262Z,98.62
2018-10-09T10:27:38.845Z,98.38
2018-10-09T10:31:01.399Z,92.90
2018-10-09T10:34:23.792Z,92.68
2018-10-09T10:37:46.483Z,89.42
2018-10-09T10:41:09.134Z,86.64
2018-10-09T10:44:31.571Z,83.93
2018-10-09T10:47:53.994Z,83.65
2018-10-09T10:51:16.595Z,82.15
2018-10-09T10:54:39.112Z,82.79
2018-10-09T10:58:01.622Z,85.28
2018-10-09T11:01:24.076Z,90.89
2018-10-09T11:04:46.523Z,88.29
2018-10-09T11:08:08.997Z,89.40
2018-10-09T11:11:31.376Z,87.31
2018-10-09T11:14:53.830Z,89.28
2018-10-09T11:18:16.298Z,91.12
2018-10-09T11:21:38.723Z,90.98
2018-10-09T11:25:01.253Z,88.07
2018-10-09T11:28:23.638Z,88.72
2018-10-09T11:31:46.023Z,90.99
2018-10-09T11:35:08.523Z,88.08
2018-10-09T11:38:31.086Z,86.27
2018-10-09T11:41:53.724Z,85.73
2018-10-09T11:45:16.261Z,86.33
2018-10-09T11:48:38.649Z,84.51
2018-10-09T11:52:01.159Z,81.57
2018-10-09T11:55:23.635Z,84.91
2018-10-09T11:58:46.285Z,82.51
2018-10-09T12:02:08.612Z,83.29
2018-10-09T12:05:31.095Z,82.41
2018-10-09T12:08:53.445Z,80.41
2018-10-09T12:12:15.954Z,79.65
2018-10-09T12:15:38.521Z,80.43
2018-10-09T12:19:00.991Z,79.36
2018-10-09T12:22:23.463Z,79.05
2018-10-09T12:25:45.930Z,76.46
2018-10-09T12:29:08.358Z,76.05
2018-10-09T12:32:30.824Z,75.95
2018-10-09T12:35:53.276Z,76.39
2018-10-09T12:39:15.896Z,77.44
2018-10-09T12:42:38.392Z,77.51
2018-10-09T12:46:00.801Z,78.06
2018-10-09T12:49:23.218Z,80.03
2018-10-09T12:52:45.601Z,77.43
2018-10-09T12:56:09.025Z,75.86
2018-10-09T12:59:31.485Z,74.71
2018-10-09T13:02:53.859Z,74.21
2018-10-09T13:06:16.254Z,74.69
2018-10-09T13:09:38.724Z,73.52
2018-10-09T13:13:01.215Z,73.72
2018-10-09T13:16:23.688Z,74.09
2018-10-09T13:19:48.076Z,77.38
2018-10-09T13:23:11.688Z,77.96
2018-10-09T13:26:34.183Z,75.79
2018-10-09T13:29:58.617Z,73.24
2018-10-09T13:33:21.036Z,72.29
2018-10-09T13:36:43.470Z,73.28
2018-10-09T13:40:07.896Z,70.52
2018-10-09T13:43:32.368Z,71.86
2018-10-09T13:47:12.888Z,69.59
2018-10-09T13:50:35.282Z,70.86
2018-10-09T13:53:57.581Z,70.75
2018-10-09T13:57:20.170Z,69.82
2018-10-09T14:00:42.639Z,69.72
2018-10-09T14:04:05.182Z,67.42
2018-10-09T14:07:29.093Z,66.11
2018-10-09T14:10:51.689Z,66.76
2018-10-09T14:14:14.157Z,67.14
2018-10-09T14:17:36.473Z,64.09
2018-10-09T14:20:58.852Z,62.03
2018-10-09T14:24:21.246Z,61.13
2018-10-09T14:27:43.577Z,60.77
2018-10-09T14:31:06.184Z,59.08
2018-10-09T14:34:28.448Z,57.31
2018-10-09T14:37:50.749Z,57.09
2018-10-09T14:41:13.235Z,58.48
2018-10-09T14:44:35.591Z,56.66
2018-10-09T14:47:58.042Z,58.37
2018-10-09T14:51:20.453Z,57.42
2018-10-09T14:54:42.872Z,57.29
2018-10-09T14:58:05.319Z,57.24
2018-10-09T15:01:27.761Z,57.89
2018-10-09T15:04:50.216Z,56.53
2018-10-09T15:08:12.778Z,57.36
2018-10-09T15:11:35.141Z,61.06
2018-10-09T15:14:57.673Z,59.63
2018-10-09T15:18:20.103Z,60.08
2018-10-09T15:21:42.492Z,59.24
2018-10-09T15:25:04.877Z,59.70
2018-10-09T15:28:27.196Z,61.55
2018-10-09T15:31:49.633Z,62.33
2018-10-09T15:35:12.020Z,63.44
2018-10-09T15:38:34.389Z,63.09
2018-10-09T15:41:57.737Z,63.83
2018-10-09T15:45:21.100Z,63.79
2018-10-09T15:48:44.379Z,64.48
2018-10-09T15:52:06.768Z,65.06
2018-10-09T15:55:31.140Z,65.88
2018-10-09T15:58:53.673Z,67.75
2018-10-09T16:02:16.215Z,69.33
2018-10-09T16:05:38.595Z,69.18
2018-10-09T16:09:02.040Z,70.09
2018-10-09T16:12:24.460Z,69.84
2018-10-09T16:15:46.881Z,69.98
2018-10-09T16:19:09.377Z,69.73
2018-10-09T16:22:36.033Z,70.36
2018-10-09T16:25:58.322Z,71.43
2018-10-09T16:29:20.708Z,71.79
2018-10-09T16:32:43.318Z,73.83
2018-10-09T16:36:05.601Z,75.68
2018-10-09T16:39:28.012Z,76.46
2018-10-09T16:42:50.389Z,77.55
2018-10-09T16:46:12.702Z,78.08
2018-10-09T16:49:36.721Z,78.66
2018-10-09T16:52:59.054Z,77.81
2018-10-09T16:56:21.531Z,77.12
2018-10-09T16:59:44.048Z,76.91
2018-10-09T17:03:06.396Z,83.10
2018-10-09T17:06:28.857Z,83.72
2018-10-09T17:09:51.177Z,83.86
2018-10-09T17:13:13.667Z,86.92
2018-10-09T17:16:36.324Z,88.04
2018-10-09T17:19:59.082Z,85.72
2018-10-09T17:23:21.718Z,88.67
2018-10-09T17:26:44.185Z,90.62
2018-10-09T17:30:08.761Z,90.23
2018-10-09T17:33:33.263Z,91.49
2018-10-09T17:36:57.696Z,89.75
2018-10-09T17:40:24.128Z,88.11
2018-10-09T17:43:49.691Z,88.26
2018-10-09T17:47:12.059Z,88.43
2018-10-09T17:50:38.698Z,87.93
2018-10-09T17:54:01.323Z,87.18
2018-10-09T17:57:23.853Z,87.18
2018-10-09T18:00:46.419Z,88.41
2018-10-09T18:04:10.033Z,88.81
2018-10-09T18:07:32.496Z,89.91
2018-10-09T18:10:57.424Z,90.61
2018-10-09T18:14:19.937Z,91.79
2018-10-09T18:17:43.821Z,89.99
2018-10-09T18:21:06.325Z,90.77
2018-10-09T18:24:28.781Z,90.29
2018-10-09T18:27:52.315Z,90.55
2018-10-09T18:31:14.946Z,91.17
2018-10-09T18:34:37.385Z,90.54
2018-10-09T18:38:03.986Z,90.58
2018-10-09T18:41:26.656Z,89.91
2018-10-09T18:44:51.682Z,92.34
2018-10-09T18:48:14.222Z,93.72
2018-10-09T18:51:36.906Z,92.49
2018-10-09T18:55:00.445Z,92.74
2018-10-09T18:58:27.215Z,90.95
2018-10-09T19:01:50.229Z,92.03
2018-10-09T19:05:12.707Z,92.80
2018-10-09T19:08:37.418Z,92.31
2018-10-09T19:12:01.033Z,92.27
2018-10-09T19:15:24.515Z,93.25
2018-10-09T19:18:47.182Z,92.13
2018-10-09T19:22:09.601Z,94.02
2018-10-09T19:25:32.046Z,95.04
2018-10-09T19:28:54.544Z,94.10
2018-10-09T19:32:16.989Z,95.04
2018-10-09T19:35:41.045Z,95.27
2018-10-09T19:39:05.774Z,94.29
2018-10-09T19:42:28.120Z,93.54
2018-10-09T19:45:50.616Z,95.65
2018-10-09T19:49:12.932Z,94.53
2018-10-09T19:52:35.860Z,94.62
2018-10-09T19:55:58.517Z,94.31
2018-10-09T19:59:21.006Z,95.23
2018-10-09T20:02:43.407Z,94.04
2018-10-09T20:06:06.117Z,94.92
2018-10-09T20:09:28.535Z,94.04
2018-10-09T20:12:50.915Z,93.63
2018-10-09T20:16:13.533Z,94.98
2018-10-09T20:19:35.887Z,96.75
2018-10-09T20:22:58.288Z,99.03
2018-10-09T20:26:20.876Z,96.13
2018-10-09T20:29:43.291Z,95.53
2018-10-09T20:33:05.768Z,95.47
2018-10-09T20:36:28.163Z,94.76
2018-10-09T20:39:50.635Z,93.92
2018-10-09T20:43:13.071Z,93.98
2018-10-09T20:46:35.472Z,95.08
2018-10-09T20:49:57.852Z,95.44
2018-10-09T20:53:20.320Z,97.25
2018-10-09T20:56:42.788Z,97.61
2018-10-09T21:00:05.277Z,97.89
2018-10-09T21:03:28.084Z,99.47
2018-10-09T21:06:50.529Z,100.00
2018-10-09T21:10:13.252Z,98.89
2018-10-09T21:13:35.720Z,98.14
2018-10-09T21:16:58.928Z,99.19
2018-10-09T21:20:21.374Z,99.83
2018-10-09T21:23:44.887Z,96.51
2018-10-09T21:27:07.318Z,96.80
2018-10-09T21:30:29.753Z,99.16
2018-10-09T21:33:52.342Z,100.00
2018-10-09T21:37:15.876Z,99.16
2018-10-09T21:40:38.320Z,100.00
2018-10-09T21:44:00.786Z,100.00
2018-10-09T21:47:23.185Z,99.37
2018-10-09T21:50:45.466Z,98.25
2018-10-09T21:54:07.948Z,97.08
2018-10-09T21:57:30.425Z,96.39
2018-10-09T22:00:58.433Z,93.77
2018-10-09T22:04:20.756Z,95.24
2018-10-09T22:07:43.143Z,98.71
2018-10-09T22:11:05.586Z,100.00
2018-10-09T22:14:28.051Z,99.93
2018-10-09T22:17:50.533Z,100.00
2018-10-09T22:21:12.841Z,100.00
2018-10-09T22:24:35.297Z,98.51
2018-10-09T22:27:57.707Z,96.24
2018-10-09T22:31:20.162Z,96.62
2018-10-09T22:34:42.633Z,97.29
2018-10-09T22:38:05.151Z,96.02
2018-10-09T22:41:27.530Z,98.12
2018-10-09T22:44:49.948Z,98.77
2018-10-09T22:48:12.410Z,96.28
2018-10-09T22:51:34.903Z,97.76
2018-10-09T22:55:12.242Z,97.18
2018-10-09T22:58:34.533Z,95.76
2018-10-09T23:01:56.837Z,97.75
2018-10-09T23:05:19.131Z,97.54
2018-10-09T23:08:41.619Z,98.57
2018-10-09T23:12:04.095Z,98.57
2018-10-09T23:15:26.456Z,99.09
2018-10-09T23:18:48.881Z,97.39
2018-10-09T23:22:11.242Z,97.07
2018-10-09T23:25:33.521Z,96.37
2018-10-09T23:28:55.807Z,96.93
2018-10-09T23:32:18.209Z,97.17
2018-10-09T23:35:40.720Z,96.50
2018-10-09T23:39:04.069Z,97.26
2018-10-09T23:42:26.375Z,96.23
2018-10-09T23:45:48.694Z,97.63
2018-10-09T23:49:11.893Z,99.06
2018-10-09T23:52:34.320Z,99.13
2018-10-09T23:55:56.707Z,97.90
2018-10-09T23:59:18.998Z,98.51
